sensor_id;sensor_type;location;lat;lon;timestamp;temperature;humidity
25188;DHT22;13141;50.414;8.050;2023-06-22T00:00:09;23.90;99.90
25188;DHT22;13141;50.414;8.050;2023-06-22T00:02:34;23.90;99.90
25188;DHT22;13141;50.414;8.050;2023-06-22T00:05:00;23.80;99.90
25188;DHT22;13141;50.414;8.050;2023-06-22T00:07:27;23.80;99.90
25188;DHT22;13141;50.414;8.050;2023-06-22T00:09:53;23.70;99.90
25188;DHT22;13141;50.414;8.050;2023-06-22T00:12:19;23.80;99.90
25188;DHT22;13141;50.414;8.050;2023-06-22T00:14:45;23.60;99.90
25188;DHT22;13141;50.414;8.050;2023-06-22T00:17:10;23.90;99.90
25188;DHT22;13141;50.414;8.050;2023-06-22T00:19:39;23.60;99.90
25188;DHT22;13141;50.414;8.050;2023-06-22T00:22:05;23.60;99.90
25188;DHT22;13141;50.414;8.050;2023-06-22T00:24:39;23.50;99.90
25188;DHT22;13141;50.414;8.050;2023-06-22T00:27:07;23.50;99.90
25188;DHT22;13141;50.414;8.050;2023-06-22T00:29:35;23.50;99.90
25188;DHT22;13141;50.414;8.050;2023-06-22T00:32:03;23.40;99.90
25188;DHT22;13141;50.414;8.050;2023-06-22T00:34:29;23.20;99.90
25188;DHT22;13141;50.414;8.050;2023-06-22T00:36:54;22.90;99.90
25188;DHT22;13141;50.414;8.050;2023-06-22T00:39:20;22.70;99.90
25188;DHT22;13141;50.414;8.050;2023-06-22T00:41:49;22.60;99.90
25188;DHT22;13141;50.414;8.050;2023-06-22T00:44:15;22.60;99.90
25188;DHT22;13141;50.414;8.050;2023-06-22T00:46:41;22.60;99.90
25188;DHT22;13141;50.414;8.050;2023-06-22T00:49:06;22.50;99.90
25188;DHT22;13141;50.414;8.050;2023-06-22T00:51:32;22.60;99.90
25188;DHT22;13141;50.414;8.050;2023-06-22T00:53:58;22.90;99.90
25188;DHT22;13141;50.414;8.050;2023-06-22T00:56:24;22.40;99.90
25188;DHT22;13141;50.414;8.050;2023-06-22T00:58:51;22.80;99.90
25188;DHT22;13141;50.414;8.050;2023-06-22T01:01:18;22.80;99.90
25188;DHT22;13141;50.414;8.050;2023-06-22T01:03:43;22.80;99.90
25188;DHT22;13141;50.414;8.050;2023-06-22T01:06:13;23.00;99.90
25188;DHT22;13141;50.414;8.050;2023-06-22T01:08:49;23.00;99.90
25188;DHT22;13141;50.414;8.050;2023-06-22T01:11:20;23.00;99.90
25188;DHT22;13141;50.414;8.050;2023-06-22T01:13:54;22.90;99.90
25188;DHT22;13141;50.414;8.050;2023-06-22T01:16:24;23.10;99.90
25188;DHT22;13141;50.414;8.050;2023-06-22T01:18:55;22.80;99.90
25188;DHT22;13141;50.414;8.050;2023-06-22T01:21:23;22.70;99.90
25188;DHT22;13141;50.414;8.050;2023-06-22T01:23:56;22.70;99.90
25188;DHT22;13141;50.414;8.050;2023-06-22T01:26:32;22.90;99.90
25188;DHT22;13141;50.414;8.050;2023-06-22T01:29:04;22.90;99.90
25188;DHT22;13141;50.414;8.050;2023-06-22T01:31:31;22.90;99.90
25188;DHT22;13141;50.414;8.050;2023-06-22T01:34:05;22.80;99.90
25188;DHT22;13141;50.414;8.050;2023-06-22T01:36:32;22.90;99.90
25188;DHT22;13141;50.414;8.050;2023-06-22T01:39:00;23.00;99.90
25188;DHT22;13141;50.414;8.050;2023-06-22T01:41:29;23.00;99.90
25188;DHT22;13141;50.414;8.050;2023-06-22T01:43:56;23.00;99.90
25188;DHT22;13141;50.414;8.050;2023-06-22T01:46:24;23.00;99.90
25188;DHT22;13141;50.414;8.050;2023-06-22T01:48:51;23.00;99.90
25188;DHT22;13141;50.414;8.050;2023-06-22T01:51:20;23.00;99.90
25188;DHT22;13141;50.414;8.050;2023-06-22T01:53:46;23.00;99.90
25188;DHT22;13141;50.414;8.050;2023-06-22T01:56:12;22.60;99.90
25188;DHT22;13141;50.414;8.050;2023-06-22T01:58:45;23.20;99.90
25188;DHT22;13141;50.414;8.050;2023-06-22T02:01:14;23.10;99.90
25188;DHT22;13141;50.414;8.050;2023-06-22T02:03:49;22.60;99.90
25188;DHT22;13141;50.414;8.050;2023-06-22T02:06:21;23.00;99.90
25188;DHT22;13141;50.414;8.050;2023-06-22T02:08:51;22.90;99.90
25188;DHT22;13141;50.414;8.050;2023-06-22T02:11:20;22.90;99.90
25188;DHT22;13141;50.414;8.050;2023-06-22T02:13:56;22.90;99.90
25188;DHT22;13141;50.414;8.050;2023-06-22T02:16:23;22.80;99.90
25188;DHT22;13141;50.414;8.050;2023-06-22T02:18:51;23.00;99.90
25188;DHT22;13141;50.414;8.050;2023-06-22T02:21:16;22.70;99.90
25188;DHT22;13141;50.414;8.050;2023-06-22T02:23:42;22.90;99.90
25188;DHT22;13141;50.414;8.050;2023-06-22T02:26:13;22.70;99.90
25188;DHT22;13141;50.414;8.050;2023-06-22T02:28:39;22.70;99.90
25188;DHT22;13141;50.414;8.050;2023-06-22T02:31:04;22.80;99.90
25188;DHT22;13141;50.414;8.050;2023-06-22T02:33:32;22.40;99.90
25188;DHT22;13141;50.414;8.050;2023-06-22T02:35:59;22.50;99.90
25188;DHT22;13141;50.414;8.050;2023-06-22T02:38:27;22.40;99.90
25188;DHT22;13141;50.414;8.050;2023-06-22T02:40:53;22.50;99.90
25188;DHT22;13141;50.414;8.050;2023-06-22T02:43:18;22.40;99.90
25188;DHT22;13141;50.414;8.050;2023-06-22T02:45:44;22.50;99.90
25188;DHT22;13141;50.414;8.050;2023-06-22T02:48:10;22.50;99.90
25188;DHT22;13141;50.414;8.050;2023-06-22T02:50:36;22.50;99.90
25188;DHT22;13141;50.414;8.050;2023-06-22T02:53:03;22.60;99.90
25188;DHT22;13141;50.414;8.050;2023-06-22T02:55:32;22.80;99.90
25188;DHT22;13141;50.414;8.050;2023-06-22T02:57:58;22.50;99.90
25188;DHT22;13141;50.414;8.050;2023-06-22T03:00:24;22.60;99.90
25188;DHT22;13141;50.414;8.050;2023-06-22T03:02:56;22.20;99.90
25188;DHT22;13141;50.414;8.050;2023-06-22T03:05:27;22.60;99.90
25188;DHT22;13141;50.414;8.050;2023-06-22T03:07:53;22.60;99.90
25188;DHT22;13141;50.414;8.050;2023-06-22T03:10:25;22.60;99.90
25188;DHT22;13141;50.414;8.050;2023-06-22T03:12:53;22.50;99.90
25188;DHT22;13141;50.414;8.050;2023-06-22T03:15:34;22.70;99.90
25188;DHT22;13141;50.414;8.050;2023-06-22T03:18:05;22.70;99.90
25188;DHT22;13141;50.414;8.050;2023-06-22T03:20:37;22.40;99.90
25188;DHT22;13141;50.414;8.050;2023-06-22T03:23:05;22.40;99.90
25188;DHT22;13141;50.414;8.050;2023-06-22T03:25:36;22.60;99.90
25188;DHT22;13141;50.414;8.050;2023-06-22T03:30:43;21.90;99.90
25188;DHT22;13141;50.414;8.050;2023-06-22T03:33:12;21.90;99.90
25188;DHT22;13141;50.414;8.050;2023-06-22T03:35:44;22.20;99.90
25188;DHT22;13141;50.414;8.050;2023-06-22T03:38:14;22.20;99.90
25188;DHT22;13141;50.414;8.050;2023-06-22T03:40:50;22.20;99.90
25188;DHT22;13141;50.414;8.050;2023-06-22T03:43:55;22.20;99.90
25188;DHT22;13141;50.414;8.050;2023-06-22T03:46:48;22.30;99.90
25188;DHT22;13141;50.414;8.050;2023-06-22T03:49:19;22.20;99.90
25188;DHT22;13141;50.414;8.050;2023-06-22T03:54:45;22.10;99.90
25188;DHT22;13141;50.414;8.050;2023-06-22T03:57:24;22.20;99.90
25188;DHT22;13141;50.414;8.050;2023-06-22T04:00:14;22.20;99.90
25188;DHT22;13141;50.414;8.050;2023-06-22T04:02:54;22.20;99.90
25188;DHT22;13141;50.414;8.050;2023-06-22T04:05:32;22.20;99.90
25188;DHT22;13141;50.414;8.050;2023-06-22T04:08:11;22.40;99.90
25188;DHT22;13141;50.414;8.050;2023-06-22T04:16:51;22.00;99.90
25188;DHT22;13141;50.414;8.050;2023-06-22T04:19:30;22.20;99.90
25188;DHT22;13141;50.414;8.050;2023-06-22T04:27:42;22.30;99.90
25188;DHT22;13141;50.414;8.050;2023-06-22T04:36:26;22.00;99.90
25188;DHT22;13141;50.414;8.050;2023-06-22T04:38:52;22.30;99.90
25188;DHT22;13141;50.414;8.050;2023-06-22T04:41:18;22.20;99.90
25188;DHT22;13141;50.414;8.050;2023-06-22T04:43:44;22.10;99.90
25188;DHT22;13141;50.414;8.050;2023-06-22T04:46:09;22.00;99.90
25188;DHT22;13141;50.414;8.050;2023-06-22T04:48:35;22.00;99.90
25188;DHT22;13141;50.414;8.050;2023-06-22T04:51:03;21.90;99.90
25188;DHT22;13141;50.414;8.050;2023-06-22T04:53:28;21.90;99.90
25188;DHT22;13141;50.414;8.050;2023-06-22T04:55:54;21.90;99.90
25188;DHT22;13141;50.414;8.050;2023-06-22T04:58:20;22.00;99.90
25188;DHT22;13141;50.414;8.050;2023-06-22T05:00:45;22.00;99.90
25188;DHT22;13141;50.414;8.050;2023-06-22T05:03:11;22.10;99.90
25188;DHT22;13141;50.414;8.050;2023-06-22T05:05:39;22.20;99.90
25188;DHT22;13141;50.414;8.050;2023-06-22T05:08:06;22.30;99.90
25188;DHT22;13141;50.414;8.050;2023-06-22T05:10:32;22.30;99.90
25188;DHT22;13141;50.414;8.050;2023-06-22T05:12:57;22.30;99.90
25188;DHT22;13141;50.414;8.050;2023-06-22T05:15:23;22.30;99.90
25188;DHT22;13141;50.414;8.050;2023-06-22T05:17:49;22.20;99.90
25188;DHT22;13141;50.414;8.050;2023-06-22T05:20:14;22.10;99.90
25188;DHT22;13141;50.414;8.050;2023-06-22T05:22:40;22.10;99.90
25188;DHT22;13141;50.414;8.050;2023-06-22T05:25:09;22.10;99.90
25188;DHT22;13141;50.414;8.050;2023-06-22T05:27:35;22.10;99.90
25188;DHT22;13141;50.414;8.050;2023-06-22T05:30:00;22.20;99.90
25188;DHT22;13141;50.414;8.050;2023-06-22T05:32:26;22.20;99.90
25188;DHT22;13141;50.414;8.050;2023-06-22T05:34:51;22.20;99.90
25188;DHT22;13141;50.414;8.050;2023-06-22T05:37:17;22.30;99.90
25188;DHT22;13141;50.414;8.050;2023-06-22T05:39:43;22.40;99.90
25188;DHT22;13141;50.414;8.050;2023-06-22T05:42:10;22.50;99.90
25188;DHT22;13141;50.414;8.050;2023-06-22T05:44:35;22.60;99.90
25188;DHT22;13141;50.414;8.050;2023-06-22T05:47:01;22.70;99.90
25188;DHT22;13141;50.414;8.050;2023-06-22T05:49:27;22.80;99.90
25188;DHT22;13141;50.414;8.050;2023-06-22T05:51:52;22.90;99.90
25188;DHT22;13141;50.414;8.050;2023-06-22T05:54:18;22.90;99.90
25188;DHT22;13141;50.414;8.050;2023-06-22T05:56:44;23.00;99.90
25188;DHT22;13141;50.414;8.050;2023-06-22T05:59:11;23.00;99.90
25188;DHT22;13141;50.414;8.050;2023-06-22T06:01:37;23.00;99.90
25188;DHT22;13141;50.414;8.050;2023-06-22T06:04:03;23.00;99.90
25188;DHT22;13141;50.414;8.050;2023-06-22T06:06:30;23.10;99.90
25188;DHT22;13141;50.414;8.050;2023-06-22T06:08:56;23.20;99.90
25188;DHT22;13141;50.414;8.050;2023-06-22T06:11:21;23.20;99.90
25188;DHT22;13141;50.414;8.050;2023-06-22T06:13:47;23.20;99.90
25188;DHT22;13141;50.414;8.050;2023-06-22T06:16:14;23.30;99.90
25188;DHT22;13141;50.414;8.050;2023-06-22T06:18:40;23.40;99.90
25188;DHT22;13141;50.414;8.050;2023-06-22T06:21:05;23.40;99.90
25188;DHT22;13141;50.414;8.050;2023-06-22T06:23:31;23.50;99.90
25188;DHT22;13141;50.414;8.050;2023-06-22T06:25:57;23.50;99.90
25188;DHT22;13141;50.414;8.050;2023-06-22T06:28:22;23.60;99.90
25188;DHT22;13141;50.414;8.050;2023-06-22T06:30:48;23.60;99.90
25188;DHT22;13141;50.414;8.050;2023-06-22T06:33:15;23.70;99.90
25188;DHT22;13141;50.414;8.050;2023-06-22T06:35:40;23.70;99.90
25188;DHT22;13141;50.414;8.050;2023-06-22T06:38:06;23.80;99.90
25188;DHT22;13141;50.414;8.050;2023-06-22T06:40:32;23.80;99.90
25188;DHT22;13141;50.414;8.050;2023-06-22T06:42:58;23.90;99.90
25188;DHT22;13141;50.414;8.050;2023-06-22T06:45:24;23.90;99.90
25188;DHT22;13141;50.414;8.050;2023-06-22T06:47:50;24.00;99.90
25188;DHT22;13141;50.414;8.050;2023-06-22T06:50:18;24.00;99.90
25188;DHT22;13141;50.414;8.050;2023-06-22T06:52:44;24.00;99.90
25188;DHT22;13141;50.414;8.050;2023-06-22T06:55:10;24.10;99.90
25188;DHT22;13141;50.414;8.050;2023-06-22T06:57:36;24.20;99.90
25188;DHT22;13141;50.414;8.050;2023-06-22T07:00:02;24.30;99.90
25188;DHT22;13141;50.414;8.050;2023-06-22T07:02:28;24.50;99.90
25188;DHT22;13141;50.414;8.050;2023-06-22T07:04:54;24.60;99.90
25188;DHT22;13141;50.414;8.050;2023-06-22T07:07:21;24.80;99.90
25188;DHT22;13141;50.414;8.050;2023-06-22T07:09:47;24.80;99.90
25188;DHT22;13141;50.414;8.050;2023-06-22T07:12:13;24.90;99.90
25188;DHT22;13141;50.414;8.050;2023-06-22T07:14:39;25.00;99.90
25188;DHT22;13141;50.414;8.050;2023-06-22T07:17:05;25.40;99.90
25188;DHT22;13141;50.414;8.050;2023-06-22T07:19:32;25.30;99.90
25188;DHT22;13141;50.414;8.050;2023-06-22T07:21:58;25.40;99.90
25188;DHT22;13141;50.414;8.050;2023-06-22T07:24:25;25.50;99.90
25188;DHT22;13141;50.414;8.050;2023-06-22T07:26:51;25.70;99.90
25188;DHT22;13141;50.414;8.050;2023-06-22T07:29:17;25.80;99.90
25188;DHT22;13141;50.414;8.050;2023-06-22T07:31:43;25.90;99.90
25188;DHT22;13141;50.414;8.050;2023-06-22T07:34:09;26.00;99.90
25188;DHT22;13141;50.414;8.050;2023-06-22T07:36:34;26.00;99.90
25188;DHT22;13141;50.414;8.050;2023-06-22T07:39:00;26.00;99.90
25188;DHT22;13141;50.414;8.050;2023-06-22T07:41:27;26.20;99.90
25188;DHT22;13141;50.414;8.050;2023-06-22T07:43:52;26.40;99.90
25188;DHT22;13141;50.414;8.050;2023-06-22T07:46:18;26.40;99.90
25188;DHT22;13141;50.414;8.050;2023-06-22T07:48:44;26.60;99.90
25188;DHT22;13141;50.414;8.050;2023-06-22T07:51:09;26.70;99.90
25188;DHT22;13141;50.414;8.050;2023-06-22T07:53:35;27.00;99.90
25188;DHT22;13141;50.414;8.050;2023-06-22T07:56:01;27.20;99.90
25188;DHT22;13141;50.414;8.050;2023-06-22T07:58:28;27.40;99.90
25188;DHT22;13141;50.414;8.050;2023-06-22T08:00:53;27.60;99.90
25188;DHT22;13141;50.414;8.050;2023-06-22T08:03:19;27.80;99.90
25188;DHT22;13141;50.414;8.050;2023-06-22T08:05:45;28.00;99.90
25188;DHT22;13141;50.414;8.050;2023-06-22T08:08:10;28.20;99.90
25188;DHT22;13141;50.414;8.050;2023-06-22T08:10:36;28.50;99.90
25188;DHT22;13141;50.414;8.050;2023-06-22T08:13:02;28.50;99.90
25188;DHT22;13141;50.414;8.050;2023-06-22T08:15:29;28.40;99.90
25188;DHT22;13141;50.414;8.050;2023-06-22T08:17:54;28.40;99.90
25188;DHT22;13141;50.414;8.050;2023-06-22T08:20:20;28.50;99.90
25188;DHT22;13141;50.414;8.050;2023-06-22T08:22:45;28.60;99.90
25188;DHT22;13141;50.414;8.050;2023-06-22T08:25:11;28.70;99.90
25188;DHT22;13141;50.414;8.050;2023-06-22T08:27:37;28.80;99.90
25188;DHT22;13141;50.414;8.050;2023-06-22T08:30:03;28.80;99.90
25188;DHT22;13141;50.414;8.050;2023-06-22T08:32:30;28.90;99.90
25188;DHT22;13141;50.414;8.050;2023-06-22T08:34:57;29.20;99.90
25188;DHT22;13141;50.414;8.050;2023-06-22T08:37:23;29.30;99.90
25188;DHT22;13141;50.414;8.050;2023-06-22T08:39:49;29.40;99.90
25188;DHT22;13141;50.414;8.050;2023-06-22T08:42:14;29.70;99.90
25188;DHT22;13141;50.414;8.050;2023-06-22T08:44:40;29.70;99.90
25188;DHT22;13141;50.414;8.050;2023-06-22T08:47:06;29.90;99.90
25188;DHT22;13141;50.414;8.050;2023-06-22T08:49:33;30.20;99.90
25188;DHT22;13141;50.414;8.050;2023-06-22T08:51:59;30.40;99.90
25188;DHT22;13141;50.414;8.050;2023-06-22T08:54:25;30.50;99.90
25188;DHT22;13141;50.414;8.050;2023-06-22T08:56:50;30.70;99.90
25188;DHT22;13141;50.414;8.050;2023-06-22T08:59:16;31.00;99.90
25188;DHT22;13141;50.414;8.050;2023-06-22T09:01:42;31.10;99.90
25188;DHT22;13141;50.414;8.050;2023-06-22T09:04:08;31.00;99.90
25188;DHT22;13141;50.414;8.050;2023-06-22T09:06:35;31.10;99.90
25188;DHT22;13141;50.414;8.050;2023-06-22T09:09:01;31.20;99.90
25188;DHT22;13141;50.414;8.050;2023-06-22T09:11:26;31.30;99.90
25188;DHT22;13141;50.414;8.050;2023-06-22T09:13:52;31.30;99.90
25188;DHT22;13141;50.414;8.050;2023-06-22T09:16:18;31.40;99.90
25188;DHT22;13141;50.414;8.050;2023-06-22T09:18:47;31.50;99.90
25188;DHT22;13141;50.414;8.050;2023-06-22T09:21:13;31.50;99.90
25188;DHT22;13141;50.414;8.050;2023-06-22T09:23:40;31.50;99.90
25188;DHT22;13141;50.414;8.050;2023-06-22T09:26:06;31.50;99.90
25188;DHT22;13141;50.414;8.050;2023-06-22T09:28:33;31.60;99.90
25188;DHT22;13141;50.414;8.050;2023-06-22T09:30:59;31.70;99.90
25188;DHT22;13141;50.414;8.050;2023-06-22T09:33:25;32.00;99.90
25188;DHT22;13141;50.414;8.050;2023-06-22T09:35:51;32.00;99.90
25188;DHT22;13141;50.414;8.050;2023-06-22T09:38:17;32.00;99.90
25188;DHT22;13141;50.414;8.050;2023-06-22T09:40:44;32.20;99.90
25188;DHT22;13141;50.414;8.050;2023-06-22T09:43:11;32.40;99.90
25188;DHT22;13141;50.414;8.050;2023-06-22T09:45:37;32.20;99.90
25188;DHT22;13141;50.414;8.050;2023-06-22T09:48:03;32.30;99.90
25188;DHT22;13141;50.414;8.050;2023-06-22T09:50:29;32.40;99.90
25188;DHT22;13141;50.414;8.050;2023-06-22T09:52:55;32.40;99.90
25188;DHT22;13141;50.414;8.050;2023-06-22T09:55:21;32.40;99.90
25188;DHT22;13141;50.414;8.050;2023-06-22T09:57:48;32.40;99.90
25188;DHT22;13141;50.414;8.050;2023-06-22T10:00:16;32.60;99.90
25188;DHT22;13141;50.414;8.050;2023-06-22T10:02:42;32.70;99.90
25188;DHT22;13141;50.414;8.050;2023-06-22T10:05:08;32.80;99.90
25188;DHT22;13141;50.414;8.050;2023-06-22T10:07:34;32.70;99.90
25188;DHT22;13141;50.414;8.050;2023-06-22T10:10:00;32.30;99.90
25188;DHT22;13141;50.414;8.050;2023-06-22T10:12:27;32.20;99.90
25188;DHT22;13141;50.414;8.050;2023-06-22T10:14:55;32.00;99.90
25188;DHT22;13141;50.414;8.050;2023-06-22T10:17:20;31.70;99.90
25188;DHT22;13141;50.414;8.050;2023-06-22T10:19:46;31.60;99.90
25188;DHT22;13141;50.414;8.050;2023-06-22T10:22:12;31.60;99.90
25188;DHT22;13141;50.414;8.050;2023-06-22T10:24:38;31.60;99.90
25188;DHT22;13141;50.414;8.050;2023-06-22T10:27:04;31.50;99.90
25188;DHT22;13141;50.414;8.050;2023-06-22T10:29:30;31.50;99.90
25188;DHT22;13141;50.414;8.050;2023-06-22T10:31:58;31.60;99.90
25188;DHT22;13141;50.414;8.050;2023-06-22T10:34:24;31.60;99.90
25188;DHT22;13141;50.414;8.050;2023-06-22T10:36:50;31.70;99.90
25188;DHT22;13141;50.414;8.050;2023-06-22T10:39:16;31.60;99.40
25188;DHT22;13141;50.414;8.050;2023-06-22T10:41:42;31.50;99.50
25188;DHT22;13141;50.414;8.050;2023-06-22T10:44:08;31.50;99.90
25188;DHT22;13141;50.414;8.050;2023-06-22T10:46:34;31.90;99.90
25188;DHT22;13141;50.414;8.050;2023-06-22T10:49:01;31.90;99.60
25188;DHT22;13141;50.414;8.050;2023-06-22T10:51:27;31.80;99.20
25188;DHT22;13141;50.414;8.050;2023-06-22T10:53:53;31.80;99.90
25188;DHT22;13141;50.414;8.050;2023-06-22T10:56:18;31.70;99.80
25188;DHT22;13141;50.414;8.050;2023-06-22T10:58:44;31.60;99.70
25188;DHT22;13141;50.414;8.050;2023-06-22T11:01:10;31.50;99.60
25188;DHT22;13141;50.414;8.050;2023-06-22T11:03:36;32.10;99.70
25188;DHT22;13141;50.414;8.050;2023-06-22T11:06:04;32.80;99.20
25188;DHT22;13141;50.414;8.050;2023-06-22T11:08:29;33.30;99.10
25188;DHT22;13141;50.414;8.050;2023-06-22T11:10:55;33.80;99.30
25188;DHT22;13141;50.414;8.050;2023-06-22T11:13:21;34.20;98.50
25188;DHT22;13141;50.414;8.050;2023-06-22T11:15:46;34.50;98.40
25188;DHT22;13141;50.414;8.050;2023-06-22T11:18:12;34.60;98.30
25188;DHT22;13141;50.414;8.050;2023-06-22T11:20:38;34.40;96.00
25188;DHT22;13141;50.414;8.050;2023-06-22T11:23:05;34.50;98.10
25188;DHT22;13141;50.414;8.050;2023-06-22T11:25:31;34.60;97.50
25188;DHT22;13141;50.414;8.050;2023-06-22T11:27:57;34.90;98.40
25188;DHT22;13141;50.414;8.050;2023-06-22T11:30:23;35.20;96.10
25188;DHT22;13141;50.414;8.050;2023-06-22T11:32:49;35.30;96.90
25188;DHT22;13141;50.414;8.050;2023-06-22T11:35:15;35.40;95.60
25188;DHT22;13141;50.414;8.050;2023-06-22T11:37:40;35.30;95.70
25188;DHT22;13141;50.414;8.050;2023-06-22T11:40:09;35.20;95.40
25188;DHT22;13141;50.414;8.050;2023-06-22T11:42:35;34.70;94.80
25188;DHT22;13141;50.414;8.050;2023-06-22T11:45:01;34.80;94.80
25188;DHT22;13141;50.414;8.050;2023-06-22T11:47:27;34.90;95.40
25188;DHT22;13141;50.414;8.050;2023-06-22T11:49:53;35.00;95.50
25188;DHT22;13141;50.414;8.050;2023-06-22T11:52:18;35.10;96.00
25188;DHT22;13141;50.414;8.050;2023-06-22T11:54:44;34.90;95.10
25188;DHT22;13141;50.414;8.050;2023-06-22T11:57:11;34.90;94.90
25188;DHT22;13141;50.414;8.050;2023-06-22T11:59:37;35.10;94.50
25188;DHT22;13141;50.414;8.050;2023-06-22T12:02:03;34.80;94.40
25188;DHT22;13141;50.414;8.050;2023-06-22T12:04:29;34.80;95.30
25188;DHT22;13141;50.414;8.050;2023-06-22T12:06:55;34.70;95.40
25188;DHT22;13141;50.414;8.050;2023-06-22T12:09:20;34.60;96.00
25188;DHT22;13141;50.414;8.050;2023-06-22T12:11:46;34.50;95.80
25188;DHT22;13141;50.414;8.050;2023-06-22T12:14:13;34.50;96.00
25188;DHT22;13141;50.414;8.050;2023-06-22T12:16:39;34.50;95.80
25188;DHT22;13141;50.414;8.050;2023-06-22T12:19:04;34.60;96.80
25188;DHT22;13141;50.414;8.050;2023-06-22T12:21:30;34.40;96.10
25188;DHT22;13141;50.414;8.050;2023-06-22T12:23:56;34.40;94.80
25188;DHT22;13141;50.414;8.050;2023-06-22T12:26:21;34.30;94.80
25188;DHT22;13141;50.414;8.050;2023-06-22T12:28:48;34.30;94.00
25188;DHT22;13141;50.414;8.050;2023-06-22T12:31:15;34.50;93.70
25188;DHT22;13141;50.414;8.050;2023-06-22T12:33:41;34.60;94.30
25188;DHT22;13141;50.414;8.050;2023-06-22T12:36:06;35.10;93.90
25188;DHT22;13141;50.414;8.050;2023-06-22T12:38:32;35.60;93.80
25188;DHT22;13141;50.414;8.050;2023-06-22T12:40:58;35.80;92.10
25188;DHT22;13141;50.414;8.050;2023-06-22T12:43:24;35.90;91.30
25188;DHT22;13141;50.414;8.050;2023-06-22T12:45:50;35.60;91.40
25188;DHT22;13141;50.414;8.050;2023-06-22T12:48:17;34.90;91.30
25188;DHT22;13141;50.414;8.050;2023-06-22T12:50:43;35.30;92.90
25188;DHT22;13141;50.414;8.050;2023-06-22T12:53:08;35.90;92.80
25188;DHT22;13141;50.414;8.050;2023-06-22T12:55:34;36.20;92.80
25188;DHT22;13141;50.414;8.050;2023-06-22T12:58:00;36.40;91.80
25188;DHT22;13141;50.414;8.050;2023-06-22T13:00:25;36.70;91.10
25188;DHT22;13141;50.414;8.050;2023-06-22T13:02:51;36.80;92.10
25188;DHT22;13141;50.414;8.050;2023-06-22T13:05:19;37.20;91.70
25188;DHT22;13141;50.414;8.050;2023-06-22T13:07:44;37.60;91.10
25188;DHT22;13141;50.414;8.050;2023-06-22T13:10:10;37.90;90.50
25188;DHT22;13141;50.414;8.050;2023-06-22T13:12:36;38.00;87.90
25188;DHT22;13141;50.414;8.050;2023-06-22T13:15:02;37.60;88.10
25188;DHT22;13141;50.414;8.050;2023-06-22T13:17:27;37.70;88.20
25188;DHT22;13141;50.414;8.050;2023-06-22T13:19:53;38.10;88.70
25188;DHT22;13141;50.414;8.050;2023-06-22T13:22:31;38.60;87.60
25188;DHT22;13141;50.414;8.050;2023-06-22T13:24:57;38.90;86.90
25188;DHT22;13141;50.414;8.050;2023-06-22T13:27:23;39.10;84.30
25188;DHT22;13141;50.414;8.050;2023-06-22T13:29:51;39.20;84.40
25188;DHT22;13141;50.414;8.050;2023-06-22T13:32:17;39.20;83.70
25188;DHT22;13141;50.414;8.050;2023-06-22T13:34:42;39.00;83.20
25188;DHT22;13141;50.414;8.050;2023-06-22T13:37:08;38.70;83.70
25188;DHT22;13141;50.414;8.050;2023-06-22T13:39:35;38.30;85.10
25188;DHT22;13141;50.414;8.050;2023-06-22T13:42:01;37.90;82.20
25188;DHT22;13141;50.414;8.050;2023-06-22T13:44:27;37.30;82.40
25188;DHT22;13141;50.414;8.050;2023-06-22T13:46:52;37.00;84.90
25188;DHT22;13141;50.414;8.050;2023-06-22T13:49:18;36.80;85.70
25188;DHT22;13141;50.414;8.050;2023-06-22T13:51:44;36.60;85.20
25188;DHT22;13141;50.414;8.050;2023-06-22T13:54:09;36.20;82.80
25188;DHT22;13141;50.414;8.050;2023-06-22T13:56:36;35.70;81.90
25188;DHT22;13141;50.414;8.050;2023-06-22T13:59:02;35.50;84.30
25188;DHT22;13141;50.414;8.050;2023-06-22T14:01:28;35.50;85.40
25188;DHT22;13141;50.414;8.050;2023-06-22T14:03:53;35.50;85.30
25188;DHT22;13141;50.414;8.050;2023-06-22T14:06:19;35.60;86.60
25188;DHT22;13141;50.414;8.050;2023-06-22T14:08:45;35.40;84.70
25188;DHT22;13141;50.414;8.050;2023-06-22T14:11:10;34.70;83.50
25188;DHT22;13141;50.414;8.050;2023-06-22T14:13:37;34.40;85.40
25188;DHT22;13141;50.414;8.050;2023-06-22T14:16:03;34.30;86.00
25188;DHT22;13141;50.414;8.050;2023-06-22T14:18:32;34.10;86.00
25188;DHT22;13141;50.414;8.050;2023-06-22T14:20:58;34.00;85.90
25188;DHT22;13141;50.414;8.050;2023-06-22T14:23:24;33.80;86.00
25188;DHT22;13141;50.414;8.050;2023-06-22T14:25:51;33.50;85.80
25188;DHT22;13141;50.414;8.050;2023-06-22T14:28:16;33.00;88.30
25188;DHT22;13141;50.414;8.050;2023-06-22T14:30:44;32.40;90.80
25188;DHT22;13141;50.414;8.050;2023-06-22T14:33:09;31.80;92.80
25188;DHT22;13141;50.414;8.050;2023-06-22T14:35:35;31.60;95.20
25188;DHT22;13141;50.414;8.050;2023-06-22T14:38:00;31.30;97.10
25188;DHT22;13141;50.414;8.050;2023-06-22T14:40:26;30.70;99.70
25188;DHT22;13141;50.414;8.050;2023-06-22T14:42:52;30.00;99.90
25188;DHT22;13141;50.414;8.050;2023-06-22T14:45:17;29.40;99.90
25188;DHT22;13141;50.414;8.050;2023-06-22T14:47:44;29.20;99.90
25188;DHT22;13141;50.414;8.050;2023-06-22T14:50:10;28.90;99.90
25188;DHT22;13141;50.414;8.050;2023-06-22T14:52:36;28.70;99.90
25188;DHT22;13141;50.414;8.050;2023-06-22T14:55:02;28.70;99.90
25188;DHT22;13141;50.414;8.050;2023-06-22T14:57:28;28.70;99.90
25188;DHT22;13141;50.414;8.050;2023-06-22T14:59:54;28.70;99.90
25188;DHT22;13141;50.414;8.050;2023-06-22T15:02:19;28.40;99.90
25188;DHT22;13141;50.414;8.050;2023-06-22T15:04:46;26.70;99.90
25188;DHT22;13141;50.414;8.050;2023-06-22T15:07:12;25.80;99.90
25188;DHT22;13141;50.414;8.050;2023-06-22T15:09:38;24.90;99.90
25188;DHT22;13141;50.414;8.050;2023-06-22T15:12:04;24.50;99.90
25188;DHT22;13141;50.414;8.050;2023-06-22T15:14:29;24.60;99.90
25188;DHT22;13141;50.414;8.050;2023-06-22T15:16:55;24.80;99.90
25188;DHT22;13141;50.414;8.050;2023-06-22T15:19:21;25.10;99.90
25188;DHT22;13141;50.414;8.050;2023-06-22T15:21:48;25.30;99.90
25188;DHT22;13141;50.414;8.050;2023-06-22T15:24:13;25.40;99.90
25188;DHT22;13141;50.414;8.050;2023-06-22T15:26:39;25.20;99.90
25188;DHT22;13141;50.414;8.050;2023-06-22T15:29:05;25.10;99.90
25188;DHT22;13141;50.414;8.050;2023-06-22T15:31:30;25.10;99.90
25188;DHT22;13141;50.414;8.050;2023-06-22T15:33:56;24.90;99.90
25188;DHT22;13141;50.414;8.050;2023-06-22T15:36:22;24.80;99.90
25188;DHT22;13141;50.414;8.050;2023-06-22T15:38:49;24.80;99.90
25188;DHT22;13141;50.414;8.050;2023-06-22T15:41:16;24.80;99.90
25188;DHT22;13141;50.414;8.050;2023-06-22T15:43:41;24.90;99.90
25188;DHT22;13141;50.414;8.050;2023-06-22T15:46:07;25.00;99.90
25188;DHT22;13141;50.414;8.050;2023-06-22T15:48:33;25.00;99.90
25188;DHT22;13141;50.414;8.050;2023-06-22T15:50:59;25.00;99.90